createdAt,value
2022-10-11T00:01:22.316Z,15.87
2022-10-11T00:03:48.917Z,18.07
2022-10-11T00:06:15.830Z,18.63
2022-10-11T00:08:46.210Z,21.43
2022-10-11T00:11:12.965Z,16.77
2022-10-11T00:13:39.608Z,15.97
2022-10-11T00:16:10.807Z,18.20
2022-10-11T00:18:38.266Z,15.40
2022-10-11T00:21:07.209Z,19.63
2022-10-11T00:23:34.183Z,21.10
2022-10-11T00:26:03.503Z,16.27
2022-10-11T00:28:30.658Z,21.03
2022-10-11T00:30:58.918Z,25.73
2022-10-11T00:33:25.582Z,21.17
2022-10-11T00:35:52.164Z,24.60
2022-10-11T00:38:19.028Z,13.60
2022-10-11T00:40:45.842Z,17.03
2022-10-11T00:43:21.907Z,18.30
2022-10-11T00:45:57.618Z,16.87
2022-10-11T00:48:29.570Z,16.33
2022-10-11T00:50:57.745Z,12.93
2022-10-11T00:53:24.903Z,16.33
2022-10-11T00:56:00.732Z,22.00
2022-10-11T00:58:27.585Z,11.10
2022-10-11T01:00:54.469Z,19.03
2022-10-11T01:03:21.617Z,30.47
2022-10-11T01:05:48.227Z,15.83
2022-10-11T01:08:14.890Z,24.43
2022-10-11T01:10:41.445Z,17.57
2022-10-11T01:13:23.133Z,20.13
2022-10-11T01:16:35.477Z,21.30
2022-10-11T01:19:36.134Z,21.13
2022-10-11T01:22:17.977Z,18.90
2022-10-11T01:24:44.562Z,20.73
2022-10-11T01:27:37.137Z,21.57
2022-10-11T01:30:18.821Z,19.20
2022-10-11T01:33:22.632Z,20.37
2022-10-11T01:35:56.947Z,19.23
2022-10-11T01:38:42.282Z,20.20
2022-10-11T01:41:28.730Z,23.37
2022-10-11T01:44:00.579Z,20.47
2022-10-11T01:46:28.654Z,27.27
2022-10-11T01:48:59.806Z,23.20
2022-10-11T01:51:32.092Z,24.80
2022-10-11T01:54:16.934Z,20.43
2022-10-11T01:57:15.706Z,28.47
2022-10-11T01:59:57.522Z,24.43
2022-10-11T02:02:36.078Z,27.70
2022-10-11T02:05:38.237Z,28.57
2022-10-11T02:08:18.962Z,25.10
2022-10-11T02:10:53.846Z,27.17
2022-10-11T02:13:24.262Z,29.13
2022-10-11T02:15:52.665Z,28.93
2022-10-11T02:18:28.964Z,29.10
2022-10-11T02:24:06.385Z,31.30
2022-10-11T02:26:44.297Z,24.00
2022-10-11T02:29:26.382Z,26.93
2022-10-11T02:32:03.894Z,30.63
2022-10-11T02:34:49.239Z,21.30
2022-10-11T02:37:56.755Z,25.80
2022-10-11T02:40:31.484Z,30.53
2022-10-11T02:43:18.944Z,34.27
2022-10-11T02:45:54.799Z,28.07
2022-10-11T02:48:29.491Z,29.93
2022-10-11T02:51:13.014Z,25.50
2022-10-11T02:53:41.029Z,25.00
2022-10-11T02:56:17.065Z,31.90
2022-10-11T02:58:43.760Z,34.60
2022-10-11T03:01:12.966Z,21.87
2022-10-11T03:03:45.057Z,33.10
2022-10-11T03:06:11.714Z,28.30
2022-10-11T03:08:40.631Z,24.67
2022-10-11T03:13:58.781Z,31.67
2022-10-11T03:16:27.533Z,29.63
2022-10-11T03:18:55.704Z,25.10
2022-10-11T03:21:29.064Z,31.93
2022-10-11T03:24:14.598Z,25.73
2022-10-11T03:26:42.850Z,23.07
2022-10-11T03:29:09.526Z,29.43
2022-10-11T03:31:39.553Z,30.37
2022-10-11T03:34:14.041Z,27.40
2022-10-11T03:36:40.665Z,40.40
2022-10-11T03:39:10.120Z,25.20
2022-10-11T03:41:45.936Z,29.77
2022-10-11T03:44:14.200Z,23.77
2022-10-11T03:46:40.851Z,25.17
2022-10-11T03:49:15.769Z,29.67
2022-10-11T03:54:44.204Z,23.77
2022-10-11T03:57:13.678Z,29.13
2022-10-11T03:59:40.377Z,25.47
2022-10-11T04:02:14.909Z,26.13
2022-10-11T04:04:41.507Z,37.13
2022-10-11T04:07:10.991Z,26.17
2022-10-11T04:09:49.923Z,24.50
2022-10-11T04:12:22.412Z,24.67
2022-10-11T04:14:57.519Z,23.90
2022-10-11T04:17:28.292Z,25.20
2022-10-11T04:20:04.523Z,22.97
2022-10-11T04:22:43.007Z,34.77
2022-10-11T04:25:28.824Z,28.00
2022-10-11T04:28:26.447Z,30.33
2022-10-11T04:30:56.415Z,28.73
2022-10-11T04:33:30.545Z,25.20
2022-10-11T04:38:56.279Z,22.33
2022-10-11T04:41:23.140Z,32.27
2022-10-11T04:43:54.540Z,28.20
2022-10-11T04:49:22.912Z,30.20
2022-10-11T04:51:53.675Z,20.60
2022-10-11T04:54:33.156Z,24.70
2022-10-11T04:57:12.836Z,30.70
2022-10-11T04:59:39.681Z,26.70
2022-10-11T05:02:06.551Z,27.37
2022-10-11T05:04:36.914Z,31.73
2022-10-11T05:07:12.834Z,18.83
2022-10-11T05:09:54.616Z,31.33
2022-10-11T05:12:22.738Z,30.03
2022-10-11T05:14:49.384Z,30.10
2022-10-11T05:17:33.541Z,29.93
2022-10-11T05:20:10.026Z,28.77
2022-10-11T05:25:21.653Z,28.80
2022-10-11T05:27:53.565Z,25.80
2022-10-11T05:30:51.214Z,26.00
2022-10-11T05:33:58.400Z,26.33
2022-10-11T05:36:33.782Z,20.83
2022-10-11T05:39:16.495Z,28.13
2022-10-11T05:44:46.419Z,23.73
2022-10-11T05:47:18.368Z,21.63
2022-10-11T05:49:59.151Z,25.13
2022-10-11T05:52:37.303Z,24.90
2022-10-11T05:55:08.929Z,27.83
2022-10-11T05:57:54.718Z,28.50
2022-10-11T06:00:49.964Z,25.70
2022-10-11T06:04:12.078Z,26.57
2022-10-11T06:06:38.931Z,24.90
2022-10-11T06:09:05.627Z,26.10
2022-10-11T06:12:30.279Z,23.13
2022-10-11T06:15:36.002Z,21.30
2022-10-11T06:18:15.874Z,29.77
2022-10-11T06:21:16.845Z,30.60
2022-10-11T06:23:43.467Z,27.20
2022-10-11T06:26:14.768Z,36.87
2022-10-11T06:28:47.241Z,24.67
2022-10-11T06:31:14.213Z,26.53
2022-10-11T06:33:40.816Z,33.70
2022-10-11T06:36:14.384Z,36.13
2022-10-11T06:39:07.380Z,64.00
2022-10-11T06:41:45.097Z,22.87
2022-10-11T06:44:19.718Z,27.03
2022-10-11T06:46:54.031Z,19.93
2022-10-11T06:49:23.302Z,18.23
2022-10-11T06:51:50.799Z,24.83
2022-10-11T06:54:26.189Z,35.83
2022-10-11T06:57:14.881Z,30.33
2022-10-11T06:59:44.656Z,38.03
2022-10-11T07:02:20.401Z,23.70
2022-10-11T07:09:14.739Z,28.63
2022-10-11T07:20:24.417Z,23.50
2022-10-11T07:23:18.071Z,18.53
2022-10-11T07:25:55.269Z,20.50
2022-10-11T07:28:22.736Z,21.17
2022-10-11T07:30:50.063Z,16.30
2022-10-11T07:39:38.389Z,20.03
2022-10-11T07:48:31.268Z,16.93
2022-10-11T07:55:42.370Z,15.90
2022-10-11T07:58:12.989Z,18.83
2022-10-11T08:00:42.763Z,15.23
2022-10-11T08:03:11.432Z,22.20
2022-10-11T08:05:39.100Z,20.60
2022-10-11T08:08:28.570Z,15.87
2022-10-11T08:14:24.241Z,11.37
2022-10-11T08:16:50.893Z,11.20
2022-10-11T08:21:38.192Z,9.90
2022-10-11T08:24:10.237Z,19.33
2022-10-11T08:27:30.618Z,18.10
2022-10-11T08:29:57.297Z,13.70
2022-10-11T08:39:57.637Z,15.00
2022-10-11T08:42:45.733Z,11.87
2022-10-11T08:50:03.129Z,11.87
2022-10-11T08:56:18.254Z,14.77
2022-10-11T08:59:12.118Z,13.00
2022-10-11T09:01:43.525Z,17.73
2022-10-11T09:04:14.115Z,16.70
2022-10-11T09:06:56.772Z,17.47
2022-10-11T09:09:56.163Z,13.83
2022-10-11T09:12:51.126Z,13.30
2022-10-11T09:15:22.143Z,11.73
2022-10-11T09:17:50.057Z,17.80
2022-10-11T09:20:39.087Z,20.83
2022-10-11T09:23:26.421Z,18.03
2022-10-11T09:26:08.839Z,16.07
2022-10-11T09:28:51.147Z,11.70
2022-10-11T09:31:18.694Z,12.63
2022-10-11T09:33:53.144Z,16.37
2022-10-11T09:36:28.746Z,17.87
2022-10-11T09:39:28.721Z,15.00
2022-10-11T09:42:06.259Z,16.43
2022-10-11T09:51:37.907Z,15.03
2022-10-11T09:54:50.183Z,13.60
2022-10-11T09:58:17.614Z,13.73
2022-10-11T10:01:19.220Z,9.50
2022-10-11T10:04:50.204Z,13.83
2022-10-11T10:08:05.212Z,9.10
2022-10-11T10:15:04.157Z,10.77
2022-10-11T10:17:30.884Z,12.63
2022-10-11T10:23:44.888Z,11.50
2022-10-11T10:26:46.564Z,13.30
2022-10-11T10:29:44.344Z,18.83
2022-10-11T10:35:54.626Z,13.30
2022-10-11T10:38:52.022Z,14.47
2022-10-11T10:41:19.548Z,13.77
2022-10-11T10:44:05.577Z,18.37
2022-10-11T10:46:50.906Z,15.87
2022-10-11T10:50:33.293Z,16.53
2022-10-11T10:53:20.187Z,16.07
2022-10-11T10:55:55.716Z,13.87
2022-10-11T10:58:39.517Z,11.23
2022-10-11T11:01:54.939Z,12.00
2022-10-11T11:04:54.021Z,11.53
2022-10-11T11:12:18.319Z,10.80
2022-10-11T11:15:37.733Z,17.63
2022-10-11T11:19:37.937Z,10.80
2022-10-11T11:22:07.102Z,11.77
2022-10-11T11:25:09.719Z,8.90
2022-10-11T11:31:33.792Z,14.33
2022-10-11T11:34:43.523Z,11.03
2022-10-11T11:42:33.801Z,12.63
2022-10-11T11:44:46.881Z,12.50
2022-10-11T11:48:29.959Z,11.40
2022-10-11T11:54:40.171Z,10.53
2022-10-11T12:00:34.948Z,10.63
2022-10-11T12:04:02.390Z,11.03
2022-10-11T12:07:25.234Z,10.17
2022-10-11T12:10:50.187Z,13.93
2022-10-11T12:13:50.391Z,13.00
2022-10-11T12:16:21.041Z,8.60
2022-10-11T12:22:34.477Z,10.00
2022-10-11T12:25:22.654Z,9.97
2022-10-11T12:28:21.119Z,16.23
2022-10-11T12:30:47.921Z,7.10
2022-10-11T12:33:23.853Z,15.10
2022-10-11T12:35:53.720Z,12.60
2022-10-11T12:38:34.001Z,8.17
2022-10-11T12:41:09.723Z,11.40
2022-10-11T12:44:13.391Z,10.17
2022-10-11T12:46:57.898Z,7.93
2022-10-11T12:49:33.391Z,9.13
2022-10-11T12:52:02.172Z,7.57
2022-10-11T12:54:43.747Z,6.90
2022-10-11T12:57:31.728Z,14.20
2022-10-11T13:00:17.876Z,6.93
2022-10-11T13:02:44.842Z,8.70
2022-10-11T13:05:22.292Z,6.77
2022-10-11T13:07:49.610Z,13.83
2022-10-11T13:10:19.185Z,14.13
2022-10-11T13:12:47.668Z,11.87
2022-10-11T13:15:19.653Z,8.10
2022-10-11T13:17:48.595Z,5.90
2022-10-11T13:20:18.240Z,8.50
2022-10-11T13:22:48.059Z,6.57
2022-10-11T13:25:23.036Z,6.80
2022-10-11T13:27:51.062Z,8.00
2022-10-11T13:30:20.965Z,7.70
2022-10-11T13:32:47.959Z,8.03
2022-10-11T13:35:24.014Z,7.33
2022-10-11T13:37:51.852Z,11.43
2022-10-11T13:41:02.594Z,15.27
2022-10-11T13:43:30.078Z,12.20
2022-10-11T13:46:12.406Z,11.33
2022-10-11T13:48:44.737Z,12.73
2022-10-11T13:51:26.808Z,9.90
2022-10-11T13:54:13.850Z,11.63
2022-10-11T13:56:50.731Z,10.37
2022-10-11T13:59:30.548Z,13.50
2022-10-11T14:02:01.252Z,4.17
2022-10-11T14:07:47.670Z,14.37
2022-10-11T14:10:21.476Z,9.40
2022-10-11T14:13:01.567Z,5.30
2022-10-11T14:15:46.297Z,4.70
2022-10-11T14:18:39.044Z,7.73
2022-10-11T14:21:31.465Z,8.07
2022-10-11T14:23:59.803Z,8.43
2022-10-11T14:26:29.982Z,6.50
2022-10-11T14:29:01.680Z,13.80
2022-10-11T14:31:30.490Z,12.77
2022-10-11T14:33:57.747Z,4.97
2022-10-11T14:36:24.932Z,8.60
2022-10-11T14:38:52.697Z,11.53
2022-10-11T14:41:19.360Z,7.27
2022-10-11T14:43:51.127Z,13.40
2022-10-11T14:46:25.849Z,10.00
2022-10-11T14:48:55.939Z,9.00
2022-10-11T14:51:26.807Z,6.17
2022-10-11T14:53:53.474Z,7.63
2022-10-11T14:56:21.668Z,10.20
2022-10-11T14:59:01.097Z,12.63
2022-10-11T15:01:40.722Z,5.93
2022-10-11T15:04:31.007Z,7.53
2022-10-11T15:07:15.430Z,10.10
2022-10-11T15:09:42.281Z,5.33
2022-10-11T15:12:14.777Z,7.57
2022-10-11T15:20:49.494Z,6.10
2022-10-11T15:23:29.313Z,9.37
2022-10-11T15:27:09.987Z,11.20
2022-10-11T16:02:39.630Z,8.53
2022-10-11T16:05:10.556Z,8.87
2022-10-11T16:08:07.859Z,8.67
2022-10-11T16:11:27.819Z,6.90
2022-10-11T16:14:06.901Z,9.27
2022-10-11T16:16:33.779Z,9.70
2022-10-11T16:19:01.856Z,13.70
2022-10-11T16:21:32.330Z,7.80
2022-10-11T16:23:59.594Z,9.40
2022-10-11T16:26:27.605Z,7.63
2022-10-11T16:29:01.246Z,6.60
2022-10-11T16:31:31.602Z,6.23
2022-10-11T16:33:58.698Z,14.10
2022-10-11T16:36:51.678Z,13.53
2022-10-11T16:39:19.788Z,8.10
2022-10-11T16:41:47.151Z,5.40
2022-10-11T16:44:17.999Z,13.07
2022-10-11T16:46:51.789Z,10.40
2022-10-11T16:49:21.992Z,10.40
2022-10-11T16:51:49.748Z,13.67
2022-10-11T16:54:20.385Z,4.07
2022-10-11T16:56:51.045Z,10.73
2022-10-11T16:59:17.842Z,9.80
2022-10-11T17:01:45.176Z,7.90
2022-10-11T17:04:24.398Z,9.77
2022-10-11T17:06:57.508Z,6.30
2022-10-11T17:09:25.723Z,15.13
2022-10-11T17:11:52.422Z,10.40
2022-10-11T17:14:24.456Z,7.37
2022-10-11T17:16:57.932Z,10.80
2022-10-11T17:19:29.634Z,11.73
2022-10-11T17:22:06.656Z,10.67
2022-10-11T17:24:45.912Z,11.30
2022-10-11T17:27:17.233Z,10.13
2022-10-11T17:30:07.763Z,10.50
2022-10-11T17:32:43.671Z,18.80
2022-10-11T17:35:10.553Z,14.40
2022-10-11T17:37:45.073Z,8.57
2022-10-11T17:42:58.281Z,11.03
2022-10-11T17:45:38.340Z,15.33
2022-10-11T17:48:05.244Z,15.50
2022-10-11T17:50:50.773Z,9.77
2022-10-11T17:53:17.640Z,14.97
2022-10-11T17:55:52.163Z,5.53
2022-10-11T17:59:20.040Z,12.67
2022-10-11T18:04:32.284Z,10.30
2022-10-11T18:07:02.098Z,18.33
2022-10-11T18:09:32.221Z,17.27
2022-10-11T18:12:05.863Z,12.40
2022-10-11T18:15:02.707Z,16.87
2022-10-11T18:20:55.626Z,8.90
2022-10-11T18:23:32.918Z,14.20
2022-10-11T18:26:22.773Z,9.37
2022-10-11T18:29:01.059Z,12.73
2022-10-11T18:32:18.143Z,9.03
2022-10-11T18:35:03.449Z,13.13
2022-10-11T18:37:35.944Z,11.43
2022-10-11T18:40:08.024Z,9.50
2022-10-11T18:43:27.462Z,10.43
2022-10-11T18:46:29.808Z,15.30
2022-10-11T18:49:35.993Z,13.73
2022-10-11T18:52:14.725Z,10.47
2022-10-11T18:54:43.805Z,12.90
2022-10-11T18:57:24.204Z,10.63
2022-10-11T19:00:37.727Z,14.13
2022-10-11T19:02:57.206Z,14.77
2022-10-11T19:05:35.087Z,8.93
2022-10-11T19:08:09.084Z,12.40
2022-10-11T19:10:43.111Z,8.17
2022-10-11T19:13:15.839Z,8.90
2022-10-11T19:15:54.244Z,11.93
2022-10-11T19:18:49.533Z,13.27
2022-10-11T19:21:21.176Z,9.63
2022-10-11T19:23:59.715Z,10.13
2022-10-11T19:26:52.998Z,8.73
2022-10-11T19:29:34.790Z,8.23
2022-10-11T19:32:15.595Z,13.97
2022-10-11T19:37:31.297Z,10.70
2022-10-11T19:40:07.257Z,11.50
2022-10-11T19:42:34.404Z,6.67
2022-10-11T19:45:13.155Z,15.90
2022-10-11T19:47:45.170Z,12.50
2022-10-11T19:50:12.009Z,8.07
2022-10-11T19:52:57.338Z,11.37
2022-10-11T19:55:46.287Z,7.00
2022-10-11T19:58:15.832Z,9.27
2022-10-11T20:00:51.774Z,11.47
2022-10-11T20:03:24.682Z,10.40
2022-10-11T20:05:54.248Z,9.50
2022-10-11T20:08:23.762Z,11.23
2022-10-11T20:10:53.569Z,17.07
2022-10-11T20:13:34.691Z,14.47
2022-10-11T20:16:17.230Z,9.80
2022-10-11T20:18:49.350Z,13.33
2022-10-11T20:21:28.579Z,10.90
2022-10-11T20:24:11.084Z,12.77
2022-10-11T20:26:43.790Z,8.20
2022-10-11T20:29:21.408Z,13.33
2022-10-11T20:31:53.773Z,13.43
2022-10-11T20:34:26.763Z,13.93
2022-10-11T20:37:17.638Z,11.47
2022-10-11T20:40:05.274Z,11.30
2022-10-11T20:42:42.069Z,12.40
2022-10-11T20:45:32.448Z,9.50
2022-10-11T20:48:04.514Z,17.07
2022-10-11T20:50:38.896Z,14.97
2022-10-11T20:53:10.836Z,13.00
2022-10-11T20:55:46.418Z,7.53
2022-10-11T20:58:25.096Z,5.40
2022-10-11T21:01:10.383Z,12.30
2022-10-11T21:06:36.700Z,9.60
2022-10-11T21:09:20.298Z,7.90
2022-10-11T21:12:17.987Z,12.63
2022-10-11T21:14:47.197Z,8.87
2022-10-11T21:17:30.113Z,11.47
2022-10-11T21:20:02.907Z,20.43
2022-10-11T21:22:46.258Z,14.57
2022-10-11T21:25:42.133Z,13.57
2022-10-11T21:28:14.675Z,14.80
2022-10-11T21:30:49.497Z,11.60
2022-10-11T21:33:24.035Z,14.30
2022-10-11T21:38:50.247Z,9.10
2022-10-11T21:41:28.956Z,10.57
2022-10-11T21:43:55.684Z,10.10
2022-10-11T21:47:05.629Z,18.10
2022-10-11T21:50:01.722Z,11.83
2022-10-11T21:52:33.854Z,10.83
2022-10-11T21:55:05.964Z,11.10
2022-10-11T21:57:37.256Z,12.47
2022-10-11T22:01:58.046Z,6.37
2022-10-11T22:03:02.382Z,11.43
2022-10-11T22:05:29.031Z,13.83
2022-10-11T22:08:07.886Z,7.77
2022-10-11T22:10:37.052Z,10.93
2022-10-11T22:13:09.267Z,15.27
2022-10-11T22:15:36.096Z,8.00
2022-10-11T22:18:03.148Z,10.80
2022-10-11T22:20:29.785Z,14.27
2022-10-11T22:22:56.427Z,8.03
2022-10-11T22:25:34.087Z,15.00
2022-10-11T22:28:08.680Z,12.67
2022-10-11T22:30:38.878Z,11.90
2022-10-11T22:33:21.409Z,7.47
2022-10-11T22:36:20.650Z,11.70
2022-10-11T22:39:13.090Z,7.77
2022-10-11T22:41:49.509Z,11.73
2022-10-11T22:44:19.913Z,11.63
2022-10-11T22:49:44.552Z,11.63
2022-10-11T22:52:27.217Z,12.07
2022-10-11T22:54:55.949Z,17.60
2022-10-11T22:57:23.031Z,13.07
2022-10-11T23:00:01.026Z,15.83
2022-10-11T23:02:30.693Z,19.27
2022-10-11T23:05:03.660Z,8.60
2022-10-11T23:07:39.566Z,9.10
2022-10-11T23:10:17.747Z,15.47
2022-10-11T23:18:15.136Z,18.80
2022-10-11T23:20:46.063Z,10.80
2022-10-11T23:23:15.854Z,8.77
2022-10-11T23:25:42.991Z,9.20
2022-10-11T23:28:26.990Z,16.80
2022-10-11T23:31:00.765Z,8.40
2022-10-11T23:33:30.930Z,12.37
2022-10-11T23:35:59.795Z,13.50
2022-10-11T23:38:34.514Z,14.30
2022-10-11T23:41:03.391Z,9.30
2022-10-11T23:43:33.042Z,19.17
2022-10-11T23:46:28.601Z,9.03
2022-10-11T23:49:23.748Z,11.67
2022-10-11T23:51:55.903Z,12.77
2022-10-11T23:54:42.280Z,20.33
2022-10-11T23:57:11.791Z,10.73
2022-10-11T23:59:53.790Z,16.00
